createdAt,value
2018-08-13T00:02:13.641Z,99.90
2018-08-13T00:04:42.136Z,99.90
2018-08-13T00:07:10.669Z,99.90
2018-08-13T00:09:42.765Z,99.90
2018-08-13T00:12:12.951Z,99.90
2018-08-13T00:14:41.526Z,99.90
2018-08-13T00:17:10.021Z,99.90
2018-08-13T00:19:38.573Z,99.90
2018-08-13T00:22:07.137Z,99.90
2018-08-13T00:24:35.677Z,99.90
2018-08-13T00:27:04.269Z,99.90
2018-08-13T00:29:32.740Z,99.90
2018-08-13T00:32:01.230Z,99.90
2018-08-13T00:34:29.741Z,99.90
2018-08-13T00:36:58.216Z,99.90
2018-08-13T00:39:26.825Z,99.90
2018-08-13T00:41:55.385Z,99.90
2018-08-13T00:44:23.893Z,99.90
2018-08-13T00:46:52.445Z,99.90
2018-08-13T00:49:20.941Z,99.90
2018-08-13T00:51:49.425Z,99.90
2018-08-13T00:54:17.914Z,99.90
2018-08-13T00:56:46.469Z,99.90
2018-08-13T00:59:15.102Z,99.90
2018-08-13T01:01:43.619Z,99.90
2018-08-13T01:04:12.201Z,99.90
2018-08-13T01:06:40.687Z,99.90
2018-08-13T01:09:10.141Z,99.90
2018-08-13T01:11:38.720Z,99.90
2018-08-13T01:14:07.521Z,99.90
2018-08-13T01:16:36.017Z,99.90
2018-08-13T01:19:04.766Z,99.90
2018-08-13T01:21:33.273Z,99.90
2018-08-13T01:24:01.826Z,99.90
2018-08-13T01:26:30.408Z,99.90
2018-08-13T01:28:58.881Z,99.90
2018-08-13T01:31:27.401Z,99.90
2018-08-13T01:33:55.965Z,99.90
2018-08-13T01:36:24.461Z,99.90
2018-08-13T01:38:52.909Z,99.90
2018-08-13T01:41:21.455Z,99.90
2018-08-13T01:43:49.968Z,99.90
2018-08-13T01:46:18.477Z,99.90
2018-08-13T01:48:47.017Z,99.90
2018-08-13T01:51:15.526Z,99.90
2018-08-13T01:53:44.058Z,99.90
2018-08-13T01:56:12.656Z,99.90
2018-08-13T01:58:41.170Z,99.90
2018-08-13T02:01:09.758Z,99.90
2018-08-13T02:03:38.381Z,99.90
2018-08-13T02:06:06.868Z,99.90
2018-08-13T02:08:35.354Z,99.90
2018-08-13T02:11:04.177Z,99.90
2018-08-13T02:13:32.681Z,99.90
2018-08-13T02:16:01.133Z,99.90
2018-08-13T02:18:29.733Z,99.90
2018-08-13T02:20:58.245Z,99.90
2018-08-13T02:23:26.793Z,99.90
2018-08-13T02:25:55.417Z,99.90
2018-08-13T02:28:23.981Z,99.90
2018-08-13T02:30:52.501Z,99.90
2018-08-13T02:33:21.083Z,99.90
2018-08-13T02:35:49.559Z,99.90
2018-08-13T02:38:18.082Z,99.90
2018-08-13T02:40:46.674Z,99.90
2018-08-13T02:43:15.221Z,99.90
2018-08-13T02:45:43.698Z,99.90
2018-08-13T02:48:12.305Z,99.90
2018-08-13T02:50:40.841Z,99.90
2018-08-13T02:53:09.310Z,99.90
2018-08-13T02:55:37.845Z,99.90
2018-08-13T02:58:06.464Z,99.90
2018-08-13T03:00:34.961Z,99.90
2018-08-13T03:03:03.529Z,99.90
2018-08-13T03:05:32.009Z,99.90
2018-08-13T03:08:00.537Z,99.90
2018-08-13T03:10:29.069Z,99.90
2018-08-13T03:12:57.606Z,99.90
2018-08-13T03:15:26.065Z,99.90
2018-08-13T03:17:54.586Z,99.90
2018-08-13T03:20:23.053Z,99.90
2018-08-13T03:22:51.518Z,99.90
2018-08-13T03:25:20.001Z,99.90
2018-08-13T03:27:48.541Z,99.90
2018-08-13T03:30:17.170Z,99.90
2018-08-13T03:32:45.695Z,99.90
2018-08-13T03:35:14.217Z,99.90
2018-08-13T03:37:42.720Z,99.90
2018-08-13T03:40:13.018Z,99.90
2018-08-13T03:42:41.717Z,99.90
2018-08-13T03:45:11.882Z,99.90
2018-08-13T03:47:40.528Z,99.90
2018-08-13T03:50:10.458Z,99.90
2018-08-13T03:52:39.033Z,99.90
2018-08-13T03:55:08.802Z,99.90
2018-08-13T03:57:37.305Z,99.90
2018-08-13T04:00:09.837Z,99.90
2018-08-13T04:02:38.396Z,99.90
2018-08-13T04:05:08.239Z,99.90
2018-08-13T04:07:37.488Z,99.90
2018-08-13T04:10:08.153Z,99.90
2018-08-13T04:12:37.693Z,99.90
2018-08-13T04:15:07.234Z,99.90
2018-08-13T04:17:35.741Z,99.90
2018-08-13T04:20:06.049Z,99.90
2018-08-13T04:22:34.549Z,99.90
2018-08-13T04:25:03.609Z,99.90
2018-08-13T04:27:32.093Z,99.90
2018-08-13T04:30:00.667Z,99.90
2018-08-13T04:32:29.141Z,99.90
2018-08-13T04:34:57.617Z,99.90
2018-08-13T04:37:26.104Z,99.90
2018-08-13T04:39:54.589Z,99.90
2018-08-13T04:42:23.084Z,99.90
2018-08-13T04:44:51.641Z,99.90
2018-08-13T04:47:20.122Z,99.90
2018-08-13T04:49:48.561Z,99.90
2018-08-13T04:52:17.245Z,99.90
2018-08-13T04:54:45.681Z,99.90
2018-08-13T04:57:14.389Z,99.90
2018-08-13T04:59:42.889Z,99.90
2018-08-13T05:02:11.353Z,99.90
2018-08-13T05:04:39.855Z,99.90
2018-08-13T05:07:08.339Z,99.90
2018-08-13T05:09:36.814Z,99.90
2018-08-13T05:12:05.297Z,99.90
2018-08-13T05:14:33.773Z,99.90
2018-08-13T05:17:02.257Z,99.90
2018-08-13T05:19:30.725Z,99.90
2018-08-13T05:21:59.309Z,99.90
2018-08-13T05:24:27.801Z,99.90
2018-08-13T05:26:56.284Z,99.90
2018-08-13T05:29:24.849Z,99.90
2018-08-13T05:31:53.337Z,99.90
2018-08-13T05:34:21.797Z,99.90
2018-08-13T05:36:50.354Z,99.90
2018-08-13T05:39:18.837Z,99.90
2018-08-13T05:41:47.328Z,99.90
2018-08-13T05:44:15.881Z,99.90
2018-08-13T05:46:44.369Z,99.90
2018-08-13T05:49:12.882Z,99.90
2018-08-13T05:51:41.379Z,99.90
2018-08-13T05:54:09.916Z,99.90
2018-08-13T05:56:38.395Z,99.90
2018-08-13T05:59:06.937Z,99.90
2018-08-13T06:01:35.401Z,99.90
2018-08-13T06:04:03.917Z,99.90
2018-08-13T06:06:32.422Z,99.90
2018-08-13T06:09:00.917Z,99.90
2018-08-13T06:11:29.469Z,99.90
2018-08-13T06:13:58.053Z,99.90
2018-08-13T06:16:26.586Z,99.90
2018-08-13T06:18:55.053Z,99.90
2018-08-13T06:21:23.616Z,99.90
2018-08-13T06:23:52.128Z,99.90
2018-08-13T06:26:20.632Z,99.90
2018-08-13T06:28:49.137Z,99.90
2018-08-13T06:31:17.622Z,99.90
2018-08-13T06:33:46.101Z,99.90
2018-08-13T06:36:14.602Z,99.90
2018-08-13T06:38:43.076Z,99.90
2018-08-13T06:41:11.573Z,99.90
2018-08-13T06:43:40.094Z,99.90
2018-08-13T06:46:08.581Z,99.90
2018-08-13T06:48:37.080Z,99.90
2018-08-13T06:51:05.693Z,99.90
2018-08-13T06:53:35.322Z,99.90
2018-08-13T06:56:03.838Z,99.90
2018-08-13T06:58:32.365Z,99.90
2018-08-13T07:01:00.910Z,99.90
2018-08-13T07:03:29.370Z,99.90
2018-08-13T07:05:57.932Z,99.90
2018-08-13T07:08:26.517Z,99.90
2018-08-13T07:10:54.997Z,99.90
2018-08-13T07:13:23.569Z,99.90
2018-08-13T07:15:52.115Z,99.90
2018-08-13T07:18:20.594Z,99.90
2018-08-13T07:20:49.184Z,99.90
2018-08-13T07:23:17.676Z,99.90
2018-08-13T07:25:46.162Z,99.90
2018-08-13T07:28:14.697Z,99.90
2018-08-13T07:30:43.205Z,99.90
2018-08-13T07:33:11.671Z,99.90
2018-08-13T07:35:40.189Z,99.90
2018-08-13T07:38:08.674Z,99.90
2018-08-13T07:40:37.197Z,99.90
2018-08-13T07:43:05.805Z,99.90
2018-08-13T07:45:34.409Z,99.90
2018-08-13T07:48:02.928Z,99.90
2018-08-13T07:50:31.458Z,99.90
2018-08-13T07:52:59.943Z,99.90
2018-08-13T07:55:28.640Z,99.90
2018-08-13T07:57:57.182Z,99.90
2018-08-13T08:00:25.675Z,99.90
2018-08-13T08:02:54.217Z,99.90
2018-08-13T08:05:22.797Z,99.90
2018-08-13T08:07:51.377Z,99.90
2018-08-13T08:10:19.999Z,99.90
2018-08-13T08:12:48.528Z,99.90
2018-08-13T08:15:18.609Z,99.90
2018-08-13T08:17:47.125Z,99.90
2018-08-13T08:20:15.717Z,99.90
2018-08-13T08:22:44.248Z,99.90
2018-08-13T08:25:18.081Z,99.90
2018-08-13T08:27:46.609Z,99.90
2018-08-13T08:30:15.309Z,99.90
2018-08-13T08:32:43.857Z,99.90
2018-08-13T08:35:14.541Z,99.90
2018-08-13T08:37:43.125Z,99.90
2018-08-13T08:40:13.504Z,99.90
2018-08-13T08:42:42.066Z,99.90
2018-08-13T08:45:17.237Z,99.90
2018-08-13T08:47:45.901Z,99.90
2018-08-13T08:50:15.144Z,99.90
2018-08-13T08:52:44.354Z,99.90
2018-08-13T08:55:12.893Z,99.90
2018-08-13T08:57:41.493Z,99.90
2018-08-13T09:00:15.429Z,99.90
2018-08-13T09:02:43.981Z,99.90
2018-08-13T09:05:12.506Z,99.90
2018-08-13T09:07:41.753Z,99.90
2018-08-13T09:10:10.281Z,99.90
2018-08-13T09:12:39.081Z,99.90
2018-08-13T09:15:08.917Z,99.90
2018-08-13T09:17:48.601Z,99.90
2018-08-13T09:20:28.097Z,99.90
2018-08-13T09:23:07.699Z,99.90
2018-08-13T09:25:47.279Z,99.90
2018-08-13T09:28:26.847Z,99.90
2018-08-13T09:31:06.435Z,99.90
2018-08-13T09:33:45.989Z,99.90
2018-08-13T09:36:14.561Z,99.90
2018-08-13T09:38:43.041Z,99.90
2018-08-13T09:41:11.541Z,99.90
2018-08-13T09:43:40.092Z,99.90
2018-08-13T09:46:08.573Z,99.90
2018-08-13T09:48:37.033Z,99.90
2018-08-13T09:51:05.601Z,99.90
2018-08-13T09:53:34.141Z,99.90
2018-08-13T09:56:02.630Z,99.90
2018-08-13T09:58:31.192Z,99.90
2018-08-13T10:01:05.037Z,99.90
2018-08-13T10:03:33.565Z,99.90
2018-08-13T10:06:02.061Z,99.90
2018-08-13T10:08:30.542Z,99.90
2018-08-13T10:10:59.195Z,99.90
2018-08-13T10:13:27.680Z,99.90
2018-08-13T10:15:56.191Z,99.90
2018-08-13T10:18:24.718Z,99.90
2018-08-13T10:20:53.303Z,99.90
2018-08-13T10:23:21.792Z,99.90
2018-08-13T10:25:50.309Z,99.90
2018-08-13T10:28:18.791Z,99.90
2018-08-13T10:30:47.281Z,99.90
2018-08-13T10:33:15.822Z,99.90
2018-08-13T10:35:44.308Z,99.90
2018-08-13T10:38:12.776Z,99.90
2018-08-13T10:40:41.317Z,99.90
2018-08-13T10:43:09.820Z,99.90
2018-08-13T10:45:38.341Z,99.90
2018-08-13T10:48:06.888Z,99.90
2018-08-13T10:50:35.371Z,99.90
2018-08-13T10:53:03.897Z,99.90
2018-08-13T10:55:32.481Z,99.90
2018-08-13T10:58:00.981Z,99.90
2018-08-13T11:00:29.579Z,99.90
2018-08-13T11:02:58.138Z,99.90
2018-08-13T11:05:26.568Z,99.90
2018-08-13T11:07:55.051Z,99.90
2018-08-13T11:10:23.706Z,99.90
2018-08-13T11:12:52.183Z,99.90
2018-08-13T11:15:20.789Z,99.90
2018-08-13T11:17:49.398Z,99.90
2018-08-13T11:20:17.997Z,99.90
2018-08-13T11:22:46.694Z,99.90
2018-08-13T11:25:16.044Z,99.90
2018-08-13T11:27:44.669Z,99.90
2018-08-13T11:30:15.386Z,99.90
2018-08-13T11:32:44.061Z,99.90
2018-08-13T11:35:13.118Z,99.90
2018-08-13T11:37:41.614Z,99.90
2018-08-13T11:40:13.680Z,99.90
2018-08-13T11:42:42.241Z,99.90
2018-08-13T11:45:10.902Z,99.90
2018-08-13T11:47:40.089Z,99.90
2018-08-13T11:50:11.811Z,99.90
2018-08-13T11:52:40.308Z,99.90
2018-08-13T11:55:08.915Z,99.90
2018-08-13T11:57:37.423Z,99.90
2018-08-13T12:00:08.090Z,99.90
2018-08-13T12:02:37.082Z,98.40
2018-08-13T12:05:07.013Z,99.30
2018-08-13T12:07:35.536Z,97.60
2018-08-13T12:10:05.108Z,96.70
2018-08-13T12:12:33.669Z,93.80
2018-08-13T12:15:02.597Z,91.70
2018-08-13T12:17:31.480Z,93.50
2018-08-13T12:20:00.067Z,93.80
2018-08-13T12:22:28.641Z,91.60
2018-08-13T12:24:57.184Z,90.70
2018-08-13T12:27:25.654Z,89.00
2018-08-13T12:29:54.099Z,89.30
2018-08-13T12:32:22.667Z,88.10
2018-08-13T12:34:51.241Z,86.10
2018-08-13T12:37:19.729Z,85.10
2018-08-13T12:39:48.266Z,85.60
2018-08-13T12:42:16.804Z,86.00
2018-08-13T12:44:45.257Z,84.20
2018-08-13T12:47:13.784Z,82.40
2018-08-13T12:49:42.286Z,83.30
2018-08-13T12:52:10.788Z,84.30
2018-08-13T12:54:39.268Z,82.80
2018-08-13T12:57:07.905Z,83.20
2018-08-13T12:59:36.383Z,81.90
2018-08-13T13:02:05.061Z,82.20
2018-08-13T13:04:33.522Z,81.60
2018-08-13T13:07:02.031Z,83.00
2018-08-13T13:09:30.559Z,84.30
2018-08-13T13:11:59.053Z,86.30
2018-08-13T13:14:27.649Z,89.20
2018-08-13T13:16:56.150Z,88.80
2018-08-13T13:19:24.605Z,90.10
2018-08-13T13:21:53.128Z,90.80
2018-08-13T13:24:21.687Z,91.20
2018-08-13T13:26:50.197Z,91.80
2018-08-13T13:29:18.661Z,91.40
2018-08-13T13:31:47.170Z,91.10
2018-08-13T13:34:15.613Z,91.60
2018-08-13T13:36:44.288Z,91.90
2018-08-13T13:39:12.836Z,92.10
2018-08-13T13:41:41.370Z,91.40
2018-08-13T13:44:09.853Z,90.60
2018-08-13T13:46:38.353Z,89.00
2018-08-13T13:49:06.842Z,88.70
2018-08-13T13:51:35.316Z,89.80
2018-08-13T13:54:03.914Z,90.00
2018-08-13T13:56:32.430Z,88.60
2018-08-13T13:59:00.914Z,87.10
2018-08-13T14:01:29.458Z,87.10
2018-08-13T14:03:57.938Z,87.30
2018-08-13T14:06:26.537Z,88.40
2018-08-13T14:08:55.245Z,89.40
2018-08-13T14:11:23.753Z,88.10
2018-08-13T14:13:52.253Z,84.90
2018-08-13T14:16:20.833Z,87.30
2018-08-13T14:18:49.351Z,89.20
2018-08-13T14:21:17.901Z,90.10
2018-08-13T14:23:46.443Z,90.50
2018-08-13T14:26:14.970Z,90.90
2018-08-13T14:28:43.473Z,90.70
2018-08-13T14:31:12.106Z,90.60
2018-08-13T14:33:40.615Z,90.90
2018-08-13T14:36:09.137Z,90.60
2018-08-13T14:38:37.761Z,91.10
2018-08-13T14:41:06.497Z,91.20
2018-08-13T14:43:35.105Z,91.60
2018-08-13T14:46:03.653Z,92.00
2018-08-13T14:48:32.234Z,90.30
2018-08-13T14:51:00.769Z,90.10
2018-08-13T14:53:29.264Z,90.40
2018-08-13T14:55:57.729Z,90.80
2018-08-13T14:58:26.250Z,92.20
2018-08-13T15:00:54.853Z,92.90
2018-08-13T15:03:23.321Z,94.20
2018-08-13T15:05:51.802Z,95.00
2018-08-13T15:08:20.309Z,95.80
2018-08-13T15:10:48.791Z,96.10
2018-08-13T15:13:17.335Z,96.50
2018-08-13T15:15:45.893Z,96.90
2018-08-13T15:18:15.073Z,97.00
2018-08-13T15:20:43.569Z,97.80
2018-08-13T15:23:12.074Z,97.30
2018-08-13T15:25:40.574Z,97.80
2018-08-13T15:28:09.165Z,98.50
2018-08-13T15:30:37.637Z,98.10
2018-08-13T15:33:06.245Z,98.10
2018-08-13T15:35:34.688Z,97.00
2018-08-13T15:38:03.229Z,95.60
2018-08-13T15:40:31.764Z,96.00
2018-08-13T15:43:00.241Z,95.10
2018-08-13T15:45:28.769Z,94.70
2018-08-13T15:47:57.290Z,95.30
2018-08-13T15:50:25.793Z,95.40
2018-08-13T15:52:54.467Z,95.90
2018-08-13T15:55:22.987Z,96.30
2018-08-13T15:57:51.518Z,96.50
2018-08-13T16:00:22.658Z,97.90
2018-08-13T16:02:51.374Z,98.00
2018-08-13T16:05:20.089Z,97.80
2018-08-13T16:07:49.124Z,98.60
2018-08-13T16:10:18.292Z,98.50
2018-08-13T16:12:47.023Z,99.40
2018-08-13T16:15:15.702Z,98.50
2018-08-13T16:17:44.237Z,98.90
2018-08-13T16:20:16.861Z,99.00
2018-08-13T16:22:45.916Z,99.50
2018-08-13T16:25:14.801Z,99.70
2018-08-13T16:27:43.777Z,99.50
2018-08-13T16:30:24.453Z,99.90
2018-08-13T16:32:53.137Z,99.90
2018-08-13T16:35:22.461Z,99.90
2018-08-13T16:37:50.984Z,99.90
2018-08-13T16:40:20.013Z,99.90
2018-08-13T16:42:49.249Z,99.90
2018-08-13T16:45:18.655Z,99.90
2018-08-13T16:47:47.293Z,99.90
2018-08-13T16:50:32.812Z,99.90
2018-08-13T16:53:01.659Z,99.90
2018-08-13T16:55:31.401Z,99.90
2018-08-13T16:58:00.863Z,99.90
2018-08-13T17:00:30.673Z,99.90
2018-08-13T17:02:59.645Z,99.90
2018-08-13T17:05:28.937Z,99.90
2018-08-13T17:07:57.497Z,99.90
2018-08-13T17:10:27.358Z,99.90
2018-08-13T17:12:56.757Z,99.90
2018-08-13T17:15:26.353Z,99.90
2018-08-13T17:17:56.353Z,99.90
2018-08-13T17:20:27.752Z,99.90
2018-08-13T17:22:56.281Z,99.90
2018-08-13T17:25:24.845Z,99.90
2018-08-13T17:27:53.445Z,99.90
2018-08-13T17:30:23.449Z,99.90
2018-08-13T17:32:53.093Z,99.90
2018-08-13T17:35:23.809Z,99.90
2018-08-13T17:37:52.347Z,99.90
2018-08-13T17:40:21.983Z,99.90
2018-08-13T17:42:51.116Z,99.90
2018-08-13T17:45:19.577Z,99.90
2018-08-13T17:47:48.118Z,99.90
2018-08-13T17:50:18.269Z,99.90
2018-08-13T17:52:46.881Z,99.90
2018-08-13T17:55:16.021Z,99.90
2018-08-13T17:57:45.165Z,99.90
2018-08-13T18:00:28.426Z,99.90
2018-08-13T18:02:57.013Z,99.90
2018-08-13T18:05:26.849Z,99.90
2018-08-13T18:07:55.969Z,99.90
2018-08-13T18:10:27.103Z,99.90
2018-08-13T18:12:56.189Z,99.90
2018-08-13T18:15:24.746Z,99.90
2018-08-13T18:17:53.338Z,99.90
2018-08-13T18:20:21.925Z,99.90
2018-08-13T18:22:50.465Z,99.90
2018-08-13T18:25:18.983Z,99.90
2018-08-13T18:27:48.838Z,99.90
2018-08-13T18:30:20.454Z,99.90
2018-08-13T18:32:49.043Z,99.90
2018-08-13T18:35:17.645Z,99.90
2018-08-13T18:37:46.249Z,99.90
2018-08-13T18:40:18.921Z,99.90
2018-08-13T18:42:47.609Z,99.90
2018-08-13T18:45:16.418Z,99.90
2018-08-13T18:47:44.962Z,99.90
2018-08-13T18:50:16.378Z,99.90
2018-08-13T18:52:45.238Z,99.90
2018-08-13T18:55:15.017Z,99.90
2018-08-13T18:57:43.618Z,99.90
2018-08-13T19:00:15.150Z,99.90
2018-08-13T19:02:43.713Z,99.90
2018-08-13T19:05:13.537Z,99.90
2018-08-13T19:07:42.481Z,99.90
2018-08-13T19:10:12.842Z,99.90
2018-08-13T19:12:41.590Z,99.90
2018-08-13T19:15:12.101Z,99.90
2018-08-13T19:17:41.014Z,99.90
2018-08-13T19:20:11.409Z,99.90
2018-08-13T19:22:39.957Z,99.90
2018-08-13T19:25:10.934Z,99.90
2018-08-13T19:27:39.604Z,99.90
2018-08-13T19:30:09.254Z,99.90
2018-08-13T19:32:37.741Z,99.90
2018-08-13T19:35:07.381Z,99.90
2018-08-13T19:37:35.906Z,99.90
2018-08-13T19:40:06.546Z,99.90
2018-08-13T19:42:35.077Z,99.90
2018-08-13T19:45:03.941Z,99.90
2018-08-13T19:47:32.450Z,99.90
2018-08-13T19:50:01.008Z,99.90
2018-08-13T19:52:29.509Z,99.90
2018-08-13T19:54:58.830Z,99.90
2018-08-13T19:57:27.766Z,99.90
2018-08-13T19:59:56.293Z,99.90
2018-08-13T20:02:24.837Z,99.90
2018-08-13T20:04:53.639Z,99.90
2018-08-13T20:07:22.106Z,99.90
2018-08-13T20:09:50.602Z,99.90
2018-08-13T20:12:19.201Z,99.90
2018-08-13T20:14:47.715Z,99.90
2018-08-13T20:17:16.231Z,99.90
2018-08-13T20:19:44.781Z,99.90
2018-08-13T20:22:15.608Z,99.90
2018-08-13T20:24:44.521Z,99.90
2018-08-13T20:27:13.089Z,99.90
2018-08-13T20:29:41.682Z,99.90
2018-08-13T20:32:10.907Z,99.90
2018-08-13T20:34:39.473Z,99.90
2018-08-13T20:37:08.045Z,99.90
2018-08-13T20:39:36.494Z,99.90
2018-08-13T20:42:05.077Z,99.90
2018-08-13T20:44:33.597Z,99.90
2018-08-13T20:47:02.075Z,99.90
2018-08-13T20:49:30.558Z,99.90
2018-08-13T20:51:59.073Z,99.90
2018-08-13T20:54:27.514Z,99.90
2018-08-13T20:56:56.049Z,99.90
2018-08-13T20:59:24.577Z,99.90
2018-08-13T21:01:53.037Z,99.90
2018-08-13T21:04:21.540Z,99.90
2018-08-13T21:06:50.022Z,99.90
2018-08-13T21:09:18.513Z,99.90
2018-08-13T21:11:47.046Z,99.90
2018-08-13T21:14:15.529Z,99.90
2018-08-13T21:16:44.051Z,99.90
2018-08-13T21:19:12.561Z,99.90
2018-08-13T21:21:41.076Z,99.90
2018-08-13T21:24:09.570Z,99.90
2018-08-13T21:26:38.167Z,99.90
2018-08-13T21:29:06.701Z,99.90
2018-08-13T21:31:35.289Z,99.90
2018-08-13T21:34:03.794Z,99.90
2018-08-13T21:36:32.317Z,99.90
2018-08-13T21:39:02.861Z,99.90
2018-08-13T21:41:31.477Z,99.90
2018-08-13T21:43:59.968Z,99.90
2018-08-13T21:46:28.445Z,99.90
2018-08-13T21:48:56.949Z,99.90
2018-08-13T21:51:25.455Z,99.90
2018-08-13T21:53:53.965Z,99.90
2018-08-13T21:56:22.490Z,99.90
2018-08-13T21:58:50.965Z,99.90
2018-08-13T22:01:24.822Z,99.90
2018-08-13T22:03:53.353Z,99.90
2018-08-13T22:06:21.865Z,99.90
2018-08-13T22:08:50.489Z,99.90
2018-08-13T22:11:19.026Z,99.90
2018-08-13T22:13:47.554Z,99.90
2018-08-13T22:16:16.046Z,99.90
2018-08-13T22:18:44.599Z,99.90
2018-08-13T22:21:13.125Z,99.90
2018-08-13T22:23:52.874Z,99.90
2018-08-13T22:26:21.360Z,99.90
2018-08-13T22:28:49.853Z,99.90
2018-08-13T22:31:18.410Z,99.90
2018-08-13T22:33:46.901Z,99.90
2018-08-13T22:36:15.416Z,99.90
2018-08-13T22:38:43.935Z,99.90
2018-08-13T22:41:12.397Z,99.90
2018-08-13T22:43:40.861Z,99.90
2018-08-13T22:46:09.425Z,99.90
2018-08-13T22:48:37.949Z,99.90
2018-08-13T22:51:06.669Z,99.90
2018-08-13T22:53:35.196Z,99.90
2018-08-13T22:56:03.739Z,99.90
2018-08-13T22:58:32.237Z,99.90
2018-08-13T23:01:00.773Z,99.90
2018-08-13T23:03:29.265Z,99.90
2018-08-13T23:05:57.774Z,99.90
2018-08-13T23:08:26.308Z,99.90
2018-08-13T23:10:54.853Z,99.90
2018-08-13T23:13:23.406Z,99.90
2018-08-13T23:15:52.010Z,99.90
2018-08-13T23:18:20.523Z,99.90
2018-08-13T23:20:49.061Z,99.90
2018-08-13T23:23:17.541Z,99.90
2018-08-13T23:25:46.046Z,99.90
2018-08-13T23:28:14.533Z,99.90
2018-08-13T23:30:43.069Z,99.90
2018-08-13T23:33:11.590Z,99.90
2018-08-13T23:35:40.169Z,99.90
2018-08-13T23:38:08.645Z,99.90
2018-08-13T23:40:37.111Z,99.90
2018-08-13T23:43:05.641Z,99.90
2018-08-13T23:45:34.161Z,99.90
2018-08-13T23:48:02.698Z,99.90
2018-08-13T23:50:31.168Z,99.90
2018-08-13T23:53:00.833Z,99.90
2018-08-13T23:55:32.745Z,99.90
2018-08-13T23:58:01.529Z,99.90
